createdAt,value
2019-04-21T00:00:55.403Z,3.30
2019-04-21T00:03:27.096Z,3.10
2019-04-21T00:06:04.625Z,3.33
2019-04-21T00:08:39.248Z,3.00
2019-04-21T00:13:27.713Z,2.95
2019-04-21T00:15:48.838Z,3.20
2019-04-21T00:18:29.630Z,3.00
2019-04-21T00:20:59.729Z,2.83
2019-04-21T00:23:42.470Z,3.35
2019-04-21T00:26:03.964Z,2.77
2019-04-21T00:28:42.500Z,3.08
2019-04-21T00:31:12.380Z,3.10
2019-04-21T00:33:25.869Z,3.05
2019-04-21T00:35:54.969Z,2.62
2019-04-21T00:38:40.285Z,3.50
2019-04-21T00:41:05.507Z,3.05
2019-04-21T00:43:29.451Z,3.10
2019-04-21T00:45:56.782Z,3.00
2019-04-21T00:48:34.771Z,2.77
2019-04-21T00:51:23.066Z,3.22
2019-04-21T00:53:58.521Z,3.10
2019-04-21T00:56:21.730Z,3.25
2019-04-21T00:58:53.585Z,3.80
2019-04-21T01:01:15.764Z,3.15
2019-04-21T01:03:53.157Z,3.02
2019-04-21T01:06:16.386Z,2.80
2019-04-21T01:08:42.678Z,2.50
2019-04-21T01:11:16.503Z,2.60
2019-04-21T01:13:45.491Z,2.40
2019-04-21T01:16:14.107Z,2.60
2019-04-21T01:18:38.091Z,2.60
2019-04-21T01:20:45.711Z,2.70
2019-04-21T01:23:12.822Z,2.93
2019-04-21T01:25:50.611Z,2.90
2019-04-21T01:28:24.593Z,2.60
2019-04-21T01:30:57.310Z,2.90
2019-04-21T01:35:55.285Z,2.80
2019-04-21T01:38:31.604Z,2.85
2019-04-21T01:40:52.987Z,2.37
2019-04-21T01:43:18.611Z,3.00
2019-04-21T01:45:49.413Z,2.90
2019-04-21T01:48:12.502Z,2.70
2019-04-21T01:50:42.444Z,2.55
2019-04-21T01:53:24.884Z,3.00
2019-04-21T01:55:58.849Z,3.40
2019-04-21T01:58:18.290Z,2.90
2019-04-21T02:00:54.332Z,2.87
2019-04-21T02:03:43.332Z,2.90
2019-04-21T02:05:59.950Z,3.00
2019-04-21T02:08:21.499Z,3.20
2019-04-21T02:10:54.934Z,3.20
2019-04-21T02:13:16.867Z,3.00
2019-04-21T02:15:48.879Z,3.30
2019-04-21T02:18:17.136Z,2.70
2019-04-21T02:20:38.334Z,3.35
2019-04-21T02:25:47.101Z,3.20
2019-04-21T02:28:24.481Z,3.10
2019-04-21T02:31:02.972Z,3.30
2019-04-21T02:33:32.403Z,2.90
2019-04-21T02:36:02.792Z,2.80
2019-04-21T02:38:32.145Z,2.72
2019-04-21T02:43:18.640Z,3.10
2019-04-21T02:45:47.563Z,3.00
2019-04-21T02:50:54.985Z,3.08
2019-04-21T02:53:18.380Z,2.80
2019-04-21T02:55:44.520Z,2.65
2019-04-21T02:58:25.537Z,3.00
2019-04-21T03:01:12.490Z,2.80
2019-04-21T03:03:53.856Z,3.20
2019-04-21T03:06:25.123Z,3.10
2019-04-21T03:11:14.632Z,3.12
2019-04-21T03:13:47.114Z,2.85
2019-04-21T03:16:23.006Z,2.90
2019-04-21T03:23:46.737Z,3.30
2019-04-21T03:28:39.725Z,2.80
2019-04-21T03:36:38.220Z,2.60
2019-04-21T03:40:57.260Z,2.98
2019-04-21T03:43:26.819Z,2.70
2019-04-21T03:48:31.950Z,2.90
2019-04-21T03:50:59.466Z,3.27
2019-04-21T03:53:29.418Z,3.17
2019-04-21T03:55:53.049Z,3.15
2019-04-21T03:58:45.063Z,3.20
2019-04-21T04:01:05.761Z,3.20
2019-04-21T04:11:30.053Z,2.98
2019-04-21T04:14:03.433Z,3.00
2019-04-21T04:16:29.011Z,3.15
2019-04-21T04:23:46.576Z,3.65
2019-04-21T04:28:50.142Z,3.50
2019-04-21T04:31:15.339Z,3.30
2019-04-21T04:33:48.533Z,3.40
2019-04-21T04:38:41.636Z,3.30
2019-04-21T04:41:24.472Z,3.30
2019-04-21T04:43:52.559Z,3.50
2019-04-21T04:46:08.089Z,3.65
2019-04-21T04:48:47.517Z,3.52
2019-04-21T04:51:39.925Z,3.50
2019-04-21T05:01:14.302Z,4.12
2019-04-21T05:03:47.319Z,4.17
2019-04-21T05:09:02.858Z,4.40
2019-04-21T05:11:32.565Z,4.30
2019-04-21T05:13:58.053Z,3.80
2019-04-21T05:16:32.010Z,4.60
2019-04-21T05:18:55.881Z,4.00
2019-04-21T05:21:25.046Z,3.40
2019-04-21T05:23:40.035Z,4.33
2019-04-21T05:26:00.031Z,4.08
2019-04-21T05:28:24.781Z,4.00
2019-04-21T05:31:12.542Z,3.72
2019-04-21T05:33:52.988Z,4.03
2019-04-21T05:36:39.555Z,4.10
2019-04-21T05:39:10.781Z,3.60
2019-04-21T05:41:33.817Z,4.20
2019-04-21T05:44:09.883Z,4.10
2019-04-21T05:46:46.774Z,4.08
2019-04-21T05:49:10.767Z,3.92
2019-04-21T05:51:35.329Z,3.60
2019-04-21T05:54:14.987Z,3.65
2019-04-21T05:56:43.831Z,4.20
2019-04-21T05:59:10.790Z,4.65
2019-04-21T06:01:37.720Z,4.40
2019-04-21T06:04:16.862Z,4.90
2019-04-21T06:06:43.569Z,4.30
2019-04-21T06:09:04.311Z,3.80
2019-04-21T06:11:30.362Z,4.40
2019-04-21T06:14:04.418Z,4.50
2019-04-21T06:16:37.452Z,4.55
2019-04-21T06:18:59.025Z,4.30
2019-04-21T06:21:26.285Z,4.50
2019-04-21T06:24:12.769Z,4.58
2019-04-21T06:28:50.436Z,5.10
2019-04-21T06:31:33.808Z,5.03
2019-04-21T06:33:52.021Z,5.00
2019-04-21T06:39:04.969Z,5.08
2019-04-21T06:41:31.505Z,4.75
2019-04-21T06:44:12.915Z,4.90
2019-04-21T06:46:33.569Z,4.83
2019-04-21T06:51:27.339Z,4.70
2019-04-21T06:54:02.093Z,4.90
2019-04-21T06:56:27.142Z,4.95
2019-04-21T06:58:51.504Z,4.67
2019-04-21T07:01:20.817Z,5.40
2019-04-21T07:03:54.302Z,5.00
2019-04-21T07:06:13.124Z,4.80
2019-04-21T07:08:53.200Z,4.60
2019-04-21T07:11:08.335Z,4.30
2019-04-21T07:13:38.836Z,4.30
2019-04-21T07:16:15.649Z,4.40
2019-04-21T07:18:41.352Z,4.33
2019-04-21T07:21:09.069Z,3.85
2019-04-21T07:23:39.364Z,3.83
2019-04-21T07:26:02.776Z,3.80
2019-04-21T07:28:31.540Z,4.60
2019-04-21T07:31:03.857Z,4.00
2019-04-21T07:33:49.587Z,4.28
2019-04-21T07:35:56.890Z,3.90
2019-04-21T07:38:27.166Z,4.03
2019-04-21T07:40:48.496Z,3.90
2019-04-21T07:43:19.733Z,3.87
2019-04-21T07:45:44.688Z,3.95
2019-04-21T07:48:35.833Z,4.30
2019-04-21T07:51:04.314Z,4.20
2019-04-21T07:53:51.042Z,4.62
2019-04-21T07:55:59.645Z,4.60
2019-04-21T07:58:45.539Z,4.20
2019-04-21T08:01:12.258Z,4.72
2019-04-21T08:03:38.940Z,4.37
2019-04-21T08:06:19.019Z,4.30
2019-04-21T08:08:35.495Z,4.72
2019-04-21T08:11:07.440Z,4.95
2019-04-21T08:14:06.900Z,4.22
2019-04-21T08:16:07.371Z,4.78
2019-04-21T08:18:33.234Z,4.23
2019-04-21T08:21:01.303Z,3.80
2019-04-21T08:26:07.759Z,3.20
2019-04-21T08:28:27.588Z,3.30
2019-04-21T08:30:55.350Z,3.42
2019-04-21T08:38:20.847Z,3.20
2019-04-21T08:40:49.723Z,3.45
2019-04-21T08:43:24.318Z,3.30
2019-04-21T08:45:49.693Z,3.00
2019-04-21T08:48:17.082Z,3.60
2019-04-21T08:50:47.599Z,3.37
2019-04-21T08:53:19.778Z,3.50
2019-04-21T08:55:48.869Z,3.17
2019-04-21T08:58:22.648Z,3.37
2019-04-21T09:00:55.074Z,2.87
2019-04-21T09:03:36.036Z,3.40
2019-04-21T09:06:07.604Z,3.10
2019-04-21T09:08:33.119Z,3.20
2019-04-21T09:11:00.740Z,3.30
2019-04-21T09:13:32.470Z,3.20
2019-04-21T09:15:58.085Z,3.50
2019-04-21T09:18:24.115Z,3.35
2019-04-21T09:21:00.153Z,3.20
2019-04-21T09:23:28.448Z,3.15
2019-04-21T09:25:57.523Z,3.40
2019-04-21T09:28:22.661Z,3.75
2019-04-21T09:30:39.486Z,3.50
2019-04-21T09:33:05.262Z,3.13
2019-04-21T09:35:31.541Z,3.67
2019-04-21T09:38:07.824Z,3.80
2019-04-21T09:40:33.928Z,3.72
2019-04-21T09:43:01.968Z,3.08
2019-04-21T09:45:24.505Z,3.80
2019-04-21T09:48:00.827Z,3.50
2019-04-21T09:50:20.196Z,3.20
2019-04-21T09:52:54.709Z,3.80
2019-04-21T09:55:19.606Z,6.15
2019-04-21T09:57:51.579Z,3.73
2019-04-21T10:00:20.645Z,3.83
2019-04-21T10:02:54.583Z,3.20
2019-04-21T10:05:12.277Z,3.60
2019-04-21T10:07:42.370Z,3.70
2019-04-21T10:10:08.389Z,2.90
2019-04-21T10:12:37.477Z,3.12
2019-04-21T10:15:06.275Z,3.40
2019-04-21T10:17:41.813Z,3.67
2019-04-21T10:20:09.435Z,3.90
2019-04-21T10:22:37.239Z,3.27
2019-04-21T10:25:07.705Z,3.50
2019-04-21T10:27:34.841Z,3.95
2019-04-21T10:30:03.711Z,3.60
2019-04-21T10:32:30.639Z,3.40
2019-04-21T10:34:57.464Z,3.87
2019-04-21T10:37:35.420Z,4.15
2019-04-21T10:39:53.819Z,3.40
2019-04-21T10:42:21.433Z,3.40
2019-04-21T10:44:49.397Z,3.90
2019-04-21T10:47:16.582Z,3.70
2019-04-21T10:49:44.818Z,3.60
2019-04-21T10:52:17.115Z,3.50
2019-04-21T10:55:07.275Z,4.10
2019-04-21T10:57:14.555Z,3.60
2019-04-21T10:59:47.114Z,3.70
2019-04-21T11:02:17.417Z,3.70
2019-04-21T11:04:45.442Z,3.52
2019-04-21T11:07:19.615Z,3.50
2019-04-21T11:09:46.353Z,3.67
2019-04-21T11:12:13.548Z,7.60
2019-04-21T11:14:41.161Z,6.65
2019-04-21T11:17:08.088Z,4.37
2019-04-21T11:19:36.771Z,3.55
2019-04-21T11:22:04.963Z,6.22
2019-04-21T11:24:33.137Z,6.97
2019-04-21T11:27:01.762Z,3.60
2019-04-21T11:29:28.777Z,7.50
2019-04-21T11:31:56.807Z,3.90
2019-04-21T11:34:25.068Z,11.00
2019-04-21T11:36:52.288Z,3.87
2019-04-21T11:39:35.537Z,3.30
2019-04-21T11:41:53.946Z,3.92
2019-04-21T11:44:24.241Z,3.67
2019-04-21T11:46:49.759Z,2.90
2019-04-21T11:49:17.889Z,2.90
2019-04-21T11:51:46.933Z,17.00
2019-04-21T11:54:14.948Z,13.43
2019-04-21T11:56:43.106Z,14.93
2019-04-21T11:59:10.214Z,8.33
2019-04-21T12:01:37.104Z,8.68
2019-04-21T12:04:35.687Z,4.83
2019-04-21T12:07:02.660Z,3.25
2019-04-21T12:09:29.504Z,3.00
2019-04-21T12:11:57.012Z,2.92
2019-04-21T12:14:24.063Z,2.70
2019-04-21T12:16:50.962Z,3.50
2019-04-21T12:19:18.687Z,3.27
2019-04-21T12:21:57.967Z,3.50
2019-04-21T12:24:15.249Z,2.80
2019-04-21T12:26:42.250Z,3.15
2019-04-21T12:29:10.063Z,3.15
2019-04-21T12:31:57.302Z,3.00
2019-04-21T12:34:24.187Z,3.00
2019-04-21T12:36:51.023Z,3.00
2019-04-21T12:39:18.730Z,2.50
2019-04-21T12:41:46.671Z,3.40
2019-04-21T12:44:14.799Z,3.42
2019-04-21T12:46:41.782Z,3.23
2019-04-21T12:49:09.806Z,3.27
2019-04-21T12:51:37.691Z,3.08
2019-04-21T12:54:05.871Z,3.10
2019-04-21T12:56:33.677Z,3.20
2019-04-21T12:59:01.532Z,2.80
2019-04-21T13:01:28.700Z,3.20
2019-04-21T13:03:55.581Z,3.30
2019-04-21T13:06:23.425Z,3.37
2019-04-21T13:08:57.881Z,2.72
2019-04-21T13:11:19.238Z,3.20
2019-04-21T13:13:46.201Z,3.00
2019-04-21T13:16:13.644Z,3.20
2019-04-21T13:18:41.661Z,3.20
2019-04-21T13:21:09.887Z,3.27
2019-04-21T13:23:37.051Z,2.98
2019-04-21T13:26:04.942Z,3.00
2019-04-21T13:28:32.825Z,3.10
2019-04-21T13:31:00.194Z,3.12
2019-04-21T13:33:27.276Z,2.92
2019-04-21T13:35:55.185Z,2.90
2019-04-21T13:38:32.629Z,2.70
2019-04-21T13:41:15.785Z,2.40
2019-04-21T13:43:27.346Z,3.10
2019-04-21T13:45:54.301Z,3.30
2019-04-21T13:48:22.406Z,2.83
2019-04-21T13:50:49.320Z,3.10
2019-04-21T13:53:16.696Z,2.80
2019-04-21T13:55:44.627Z,3.33
2019-04-21T13:58:12.449Z,3.00
2019-04-21T14:00:39.999Z,3.25
2019-04-21T14:03:07.142Z,3.80
2019-04-21T14:05:34.015Z,3.77
2019-04-21T14:08:01.036Z,3.92
2019-04-21T14:10:29.246Z,3.40
2019-04-21T14:12:56.673Z,3.60
2019-04-21T14:15:24.188Z,3.07
2019-04-21T14:17:51.232Z,3.47
2019-04-21T14:20:19.494Z,3.75
2019-04-21T14:22:46.590Z,3.33
2019-04-21T14:25:15.375Z,2.98
2019-04-21T14:27:42.400Z,2.70
2019-04-21T14:30:10.455Z,3.30
2019-04-21T14:32:38.006Z,3.35
2019-04-21T14:35:06.863Z,3.50
2019-04-21T14:37:34.899Z,3.10
2019-04-21T14:40:07.355Z,3.37
2019-04-21T14:42:31.855Z,3.60
2019-04-21T14:44:58.914Z,3.30
2019-04-21T14:47:31.426Z,3.42
2019-04-21T14:50:18.161Z,3.50
2019-04-21T14:52:46.528Z,3.20
2019-04-21T14:55:16.554Z,3.30
2019-04-21T14:57:45.122Z,3.40
2019-04-21T15:00:15.479Z,3.50
2019-04-21T15:02:43.570Z,3.30
2019-04-21T15:05:11.769Z,3.30
2019-04-21T15:07:41.393Z,11.45
2019-04-21T15:10:17.994Z,3.20
2019-04-21T15:12:39.377Z,3.53
2019-04-21T15:15:07.765Z,3.22
2019-04-21T15:17:35.954Z,3.20
2019-04-21T15:20:10.424Z,3.77
2019-04-21T15:22:34.551Z,3.37
2019-04-21T15:25:02.786Z,2.90
2019-04-21T15:27:30.739Z,3.42
2019-04-21T15:29:58.503Z,3.50
2019-04-21T15:32:26.526Z,3.83
2019-04-21T15:34:54.040Z,3.90
2019-04-21T15:37:22.027Z,3.50
2019-04-21T15:39:49.008Z,3.00
2019-04-21T15:42:16.720Z,3.50
2019-04-21T15:44:44.937Z,3.30
2019-04-21T15:47:11.886Z,2.90
2019-04-21T15:50:00.909Z,2.80
2019-04-21T15:52:25.236Z,3.25
2019-04-21T15:54:54.635Z,3.12
2019-04-21T15:57:30.030Z,2.92
2019-04-21T16:00:00.342Z,3.25
2019-04-21T16:02:37.209Z,3.02
2019-04-21T16:05:06.700Z,2.98
2019-04-21T16:07:34.036Z,2.72
2019-04-21T16:10:02.034Z,2.80
2019-04-21T16:12:29.733Z,2.50
2019-04-21T16:14:56.658Z,3.08
2019-04-21T16:17:23.750Z,2.83
2019-04-21T16:19:52.078Z,2.60
2019-04-21T16:22:19.127Z,3.20
2019-04-21T16:24:47.838Z,2.98
2019-04-21T16:27:15.246Z,2.60
2019-04-21T16:29:43.631Z,3.20
2019-04-21T16:32:11.520Z,2.95
2019-04-21T16:34:47.144Z,2.90
2019-04-21T16:37:09.617Z,2.80
2019-04-21T16:39:37.754Z,2.40
2019-04-21T16:42:06.285Z,2.83
2019-04-21T16:44:34.679Z,2.90
2019-04-21T16:47:01.633Z,2.67
2019-04-21T16:49:29.586Z,2.80
2019-04-21T16:52:02.330Z,2.85
2019-04-21T16:54:29.461Z,2.90
2019-04-21T16:56:59.731Z,2.50
2019-04-21T16:59:28.768Z,2.80
2019-04-21T17:01:56.549Z,2.17
2019-04-21T17:04:24.475Z,2.87
2019-04-21T17:06:51.470Z,3.00
2019-04-21T17:09:18.824Z,2.42
2019-04-21T17:11:47.018Z,3.05
2019-04-21T17:14:31.695Z,2.70
2019-04-21T17:17:09.939Z,2.77
2019-04-21T17:19:25.365Z,2.70
2019-04-21T17:21:45.716Z,2.30
2019-04-21T17:24:12.853Z,2.30
2019-04-21T17:26:43.968Z,2.60
2019-04-21T17:29:10.552Z,2.60
2019-04-21T17:31:37.576Z,2.50
2019-04-21T17:34:11.664Z,2.58
2019-04-21T17:36:33.314Z,2.50
2019-04-21T17:39:01.926Z,2.15
2019-04-21T17:41:37.664Z,2.10
2019-04-21T17:43:58.311Z,2.25
2019-04-21T17:46:36.647Z,2.35
2019-04-21T17:48:54.750Z,2.40
2019-04-21T17:51:27.650Z,2.50
2019-04-21T17:54:13.690Z,2.37
2019-04-21T17:56:59.856Z,2.30
2019-04-21T17:59:28.099Z,2.50
2019-04-21T18:01:54.707Z,2.10
2019-04-21T18:04:18.202Z,2.37
2019-04-21T18:07:10.235Z,2.30
2019-04-21T18:09:49.830Z,2.35
2019-04-21T18:12:10.833Z,2.37
2019-04-21T18:14:22.183Z,2.60
2019-04-21T18:16:51.623Z,2.42
2019-04-21T18:19:19.350Z,3.00
2019-04-21T18:21:54.115Z,2.42
2019-04-21T18:24:22.588Z,2.10
2019-04-21T18:26:55.406Z,2.42
2019-04-21T18:29:17.934Z,2.45
2019-04-21T18:31:48.672Z,2.37
2019-04-21T18:34:18.214Z,2.67
2019-04-21T18:36:50.281Z,2.20
2019-04-21T18:39:34.270Z,2.60
2019-04-21T18:42:18.944Z,2.72
2019-04-21T18:45:10.613Z,2.70
2019-04-21T18:47:25.651Z,2.83
2019-04-21T18:49:44.737Z,2.60
2019-04-21T18:52:22.462Z,2.90
2019-04-21T18:55:00.414Z,2.90
2019-04-21T18:57:22.851Z,3.42
2019-04-21T18:59:45.133Z,3.50
2019-04-21T19:02:11.268Z,4.10
2019-04-21T19:04:40.546Z,4.00
2019-04-21T19:07:21.080Z,3.60
2019-04-21T19:10:09.827Z,3.50
2019-04-21T19:12:35.637Z,4.00
2019-04-21T19:14:50.634Z,4.50
2019-04-21T19:17:51.077Z,3.20
2019-04-21T19:22:15.278Z,3.20
2019-04-21T19:24:49.027Z,3.20
2019-04-21T19:27:20.884Z,3.40
2019-04-21T19:29:49.999Z,3.00
2019-04-21T19:32:13.837Z,3.55
2019-04-21T19:34:26.763Z,3.40
2019-04-21T19:36:57.583Z,3.70
2019-04-21T19:39:39.064Z,4.20
2019-04-21T19:42:00.268Z,3.62
2019-04-21T19:44:37.985Z,3.60
2019-04-21T19:47:03.883Z,3.20
2019-04-21T19:49:39.935Z,3.40
2019-04-21T19:51:54.030Z,3.30
2019-04-21T19:54:23.028Z,3.30
2019-04-21T19:56:42.996Z,3.58
2019-04-21T19:59:11.822Z,3.20
2019-04-21T20:01:39.360Z,3.90
2019-04-21T20:04:06.398Z,3.40
2019-04-21T20:06:47.525Z,3.40
2019-04-21T20:09:17.843Z,3.05
2019-04-21T20:11:48.754Z,3.57
2019-04-21T20:16:46.653Z,3.40
2019-04-21T20:19:02.349Z,3.40
2019-04-21T20:21:25.257Z,3.72
2019-04-21T20:23:57.450Z,3.10
2019-04-21T20:26:24.605Z,3.20
2019-04-21T20:28:59.273Z,3.20
2019-04-21T20:31:37.363Z,3.40
2019-04-21T20:34:06.287Z,3.85
2019-04-21T20:36:33.206Z,3.60
2019-04-21T20:38:50.147Z,3.70
2019-04-21T20:41:27.322Z,3.80
2019-04-21T20:44:02.221Z,3.40
2019-04-21T20:46:25.523Z,4.60
2019-04-21T20:48:50.938Z,3.92
2019-04-21T20:51:23.485Z,4.50
2019-04-21T20:53:50.911Z,4.28
2019-04-21T20:56:13.011Z,4.30
2019-04-21T20:58:53.739Z,3.80
2019-04-21T21:01:33.265Z,4.80
2019-04-21T21:03:57.842Z,4.70
2019-04-21T21:06:14.420Z,5.30
2019-04-21T21:08:45.075Z,5.90
2019-04-21T21:11:08.049Z,5.72
2019-04-21T21:13:44.377Z,5.20
2019-04-21T21:18:56.468Z,5.60
2019-04-21T21:21:04.559Z,4.50
2019-04-21T21:23:40.573Z,4.50
2019-04-21T21:26:09.464Z,4.53
2019-04-21T21:28:32.650Z,4.60
2019-04-21T21:31:04.177Z,4.58
2019-04-21T21:33:25.265Z,4.60
2019-04-21T21:35:56.615Z,4.30
2019-04-21T21:38:30.948Z,4.65
2019-04-21T21:40:53.024Z,4.70
2019-04-21T21:43:16.607Z,4.67
2019-04-21T21:45:42.197Z,4.22
2019-04-21T21:48:21.959Z,5.00
2019-04-21T21:50:46.990Z,4.60
2019-04-21T21:53:13.183Z,4.62
2019-04-21T21:55:34.025Z,5.20
2019-04-21T21:58:02.435Z,6.40
2019-04-21T22:00:30.343Z,5.60
2019-04-21T22:02:59.188Z,4.30
2019-04-21T22:05:29.264Z,5.10
2019-04-21T22:07:54.430Z,4.87
2019-04-21T22:10:21.241Z,4.62
2019-04-21T22:12:56.815Z,5.05
2019-04-21T22:15:22.482Z,4.53
2019-04-21T22:18:07.387Z,4.60
2019-04-21T22:20:33.021Z,5.03
2019-04-21T22:22:53.418Z,5.00
2019-04-21T22:25:20.675Z,4.58
2019-04-21T22:27:41.477Z,4.67
2019-04-21T22:30:12.496Z,4.40
2019-04-21T22:32:38.665Z,4.28
2019-04-21T22:35:10.785Z,5.00
2019-04-21T22:37:47.442Z,5.08
2019-04-21T22:40:16.653Z,5.00
2019-04-21T22:42:45.179Z,4.67
2019-04-21T22:45:05.269Z,4.90
2019-04-21T22:47:35.792Z,4.70
2019-04-21T22:50:00.748Z,4.50
2019-04-21T22:52:29.949Z,4.40
2019-04-21T22:54:56.201Z,4.28
2019-04-21T22:57:26.599Z,4.20
2019-04-21T22:59:59.363Z,4.25
2019-04-21T23:02:24.723Z,4.70
2019-04-21T23:04:53.062Z,4.80
2019-04-21T23:07:20.763Z,4.08
2019-04-21T23:09:47.502Z,4.40
2019-04-21T23:12:21.812Z,4.60
2019-04-21T23:14:53.412Z,4.50
2019-04-21T23:17:38.953Z,4.30
2019-04-21T23:20:03.913Z,4.67
2019-04-21T23:22:30.501Z,4.40
2019-04-21T23:25:00.485Z,5.30
2019-04-21T23:27:17.245Z,4.70
2019-04-21T23:30:17.812Z,4.00
2019-04-21T23:32:20.954Z,4.50
2019-04-21T23:34:36.854Z,5.30
2019-04-21T23:37:08.357Z,4.55
2019-04-21T23:39:32.837Z,6.10
2019-04-21T23:42:00.936Z,6.22
2019-04-21T23:44:28.047Z,4.50
2019-04-21T23:47:00.789Z,3.92
2019-04-21T23:49:38.318Z,4.67
2019-04-21T23:52:00.798Z,4.60
2019-04-21T23:54:23.125Z,4.15
2019-04-21T23:56:51.447Z,4.80
2019-04-21T23:59:18.552Z,4.20
